sensor_id;sensor_type;location;lat;lon;timestamp;P1;durP1;ratioP1;P2;durP2;ratioP2
7517;SDS011;3800;48.922;9.444;2023-04-25T00:00:37;5.33;;;3.60;;
7517;SDS011;3800;48.922;9.444;2023-04-25T00:03:06;3.60;;;3.30;;
7517;SDS011;3800;48.922;9.444;2023-04-25T00:05:35;4.40;;;3.00;;
7517;SDS011;3800;48.922;9.444;2023-04-25T00:08:03;3.30;;;3.00;;
7517;SDS011;3800;48.922;9.444;2023-04-25T00:10:31;3.40;;;3.10;;
7517;SDS011;3800;48.922;9.444;2023-04-25T00:12:59;4.67;;;3.10;;
7517;SDS011;3800;48.922;9.444;2023-04-25T00:15:28;4.27;;;3.40;;
7517;SDS011;3800;48.922;9.444;2023-04-25T00:17:58;2.67;;;2.47;;
7517;SDS011;3800;48.922;9.444;2023-04-25T00:20:27;3.73;;;3.00;;
7517;SDS011;3800;48.922;9.444;2023-04-25T00:22:55;4.03;;;3.00;;
7517;SDS011;3800;48.922;9.444;2023-04-25T00:25:24;2.80;;;2.50;;
7517;SDS011;3800;48.922;9.444;2023-04-25T00:27:52;3.73;;;2.80;;
7517;SDS011;3800;48.922;9.444;2023-04-25T00:30:20;3.13;;;2.80;;
7517;SDS011;3800;48.922;9.444;2023-04-25T00:32:48;4.23;;;3.17;;
7517;SDS011;3800;48.922;9.444;2023-04-25T00:35:16;3.30;;;3.00;;
7517;SDS011;3800;48.922;9.444;2023-04-25T00:37:45;4.17;;;3.50;;
7517;SDS011;3800;48.922;9.444;2023-04-25T00:40:14;4.23;;;3.40;;
7517;SDS011;3800;48.922;9.444;2023-04-25T00:42:42;3.50;;;3.20;;
7517;SDS011;3800;48.922;9.444;2023-04-25T00:45:10;3.90;;;3.53;;
7517;SDS011;3800;48.922;9.444;2023-04-25T00:47:38;3.83;;;3.27;;
7517;SDS011;3800;48.922;9.444;2023-04-25T00:50:07;4.17;;;3.43;;
7517;SDS011;3800;48.922;9.444;2023-04-25T00:52:36;3.93;;;3.27;;
7517;SDS011;3800;48.922;9.444;2023-04-25T00:55:05;3.43;;;3.17;;
7517;SDS011;3800;48.922;9.444;2023-04-25T00:57:34;3.27;;;3.07;;
7517;SDS011;3800;48.922;9.444;2023-04-25T01:00:03;3.23;;;2.90;;
7517;SDS011;3800;48.922;9.444;2023-04-25T01:02:33;5.43;;;2.80;;
7517;SDS011;3800;48.922;9.444;2023-04-25T01:05:00;3.70;;;2.73;;
7517;SDS011;3800;48.922;9.444;2023-04-25T01:07:29;3.10;;;2.80;;
7517;SDS011;3800;48.922;9.444;2023-04-25T01:09:58;3.40;;;3.10;;
7517;SDS011;3800;48.922;9.444;2023-04-25T01:12:26;3.40;;;3.00;;
7517;SDS011;3800;48.922;9.444;2023-04-25T01:14:54;3.60;;;2.80;;
7517;SDS011;3800;48.922;9.444;2023-04-25T01:17:22;3.60;;;3.03;;
7517;SDS011;3800;48.922;9.444;2023-04-25T01:19:51;3.30;;;3.00;;
7517;SDS011;3800;48.922;9.444;2023-04-25T01:22:19;3.53;;;3.17;;
7517;SDS011;3800;48.922;9.444;2023-04-25T01:24:47;3.30;;;2.70;;
7517;SDS011;3800;48.922;9.444;2023-04-25T01:27:16;3.07;;;2.77;;
7517;SDS011;3800;48.922;9.444;2023-04-25T01:29:44;3.13;;;2.83;;
7517;SDS011;3800;48.922;9.444;2023-04-25T01:32:12;3.23;;;2.80;;
7517;SDS011;3800;48.922;9.444;2023-04-25T01:34:40;3.97;;;2.63;;
7517;SDS011;3800;48.922;9.444;2023-04-25T01:37:09;3.60;;;2.70;;
7517;SDS011;3800;48.922;9.444;2023-04-25T01:39:38;3.40;;;2.80;;
7517;SDS011;3800;48.922;9.444;2023-04-25T01:42:06;3.27;;;2.97;;
7517;SDS011;3800;48.922;9.444;2023-04-25T01:44:34;3.70;;;2.90;;
7517;SDS011;3800;48.922;9.444;2023-04-25T01:47:02;3.00;;;2.80;;
7517;SDS011;3800;48.922;9.444;2023-04-25T01:49:31;3.20;;;3.00;;
7517;SDS011;3800;48.922;9.444;2023-04-25T01:51:59;4.03;;;3.07;;
7517;SDS011;3800;48.922;9.444;2023-04-25T01:54:27;3.30;;;3.00;;
7517;SDS011;3800;48.922;9.444;2023-04-25T01:56:56;3.73;;;3.03;;
7517;SDS011;3800;48.922;9.444;2023-04-25T01:59:24;3.37;;;3.07;;
7517;SDS011;3800;48.922;9.444;2023-04-25T02:01:53;3.10;;;2.90;;
7517;SDS011;3800;48.922;9.444;2023-04-25T02:04:21;3.20;;;2.90;;
7517;SDS011;3800;48.922;9.444;2023-04-25T02:06:49;3.03;;;2.83;;
7517;SDS011;3800;48.922;9.444;2023-04-25T02:09:17;3.40;;;3.07;;
7517;SDS011;3800;48.922;9.444;2023-04-25T02:11:46;4.37;;;3.20;;
7517;SDS011;3800;48.922;9.444;2023-04-25T02:14:14;3.33;;;2.70;;
7517;SDS011;3800;48.922;9.444;2023-04-25T02:16:42;3.27;;;2.97;;
7517;SDS011;3800;48.922;9.444;2023-04-25T02:19:11;4.77;;;2.97;;
7517;SDS011;3800;48.922;9.444;2023-04-25T02:21:39;4.00;;;3.07;;
7517;SDS011;3800;48.922;9.444;2023-04-25T02:24:08;3.17;;;2.83;;
7517;SDS011;3800;48.922;9.444;2023-04-25T02:26:37;3.50;;;3.20;;
7517;SDS011;3800;48.922;9.444;2023-04-25T02:29:06;3.63;;;3.33;;
7517;SDS011;3800;48.922;9.444;2023-04-25T02:31:34;4.00;;;3.13;;
7517;SDS011;3800;48.922;9.444;2023-04-25T02:34:03;3.40;;;3.10;;
7517;SDS011;3800;48.922;9.444;2023-04-25T02:36:33;3.63;;;3.30;;
7517;SDS011;3800;48.922;9.444;2023-04-25T02:39:01;3.30;;;3.00;;
7517;SDS011;3800;48.922;9.444;2023-04-25T02:41:29;3.77;;;3.30;;
7517;SDS011;3800;48.922;9.444;2023-04-25T02:43:57;3.20;;;2.90;;
7517;SDS011;3800;48.922;9.444;2023-04-25T02:46:26;5.40;;;3.20;;
7517;SDS011;3800;48.922;9.444;2023-04-25T02:48:55;5.30;;;3.30;;
7517;SDS011;3800;48.922;9.444;2023-04-25T02:51:23;3.47;;;3.17;;
7517;SDS011;3800;48.922;9.444;2023-04-25T02:53:51;3.70;;;3.40;;
7517;SDS011;3800;48.922;9.444;2023-04-25T02:56:19;3.93;;;3.30;;
7517;SDS011;3800;48.922;9.444;2023-04-25T02:58:48;4.63;;;3.53;;
7517;SDS011;3800;48.922;9.444;2023-04-25T03:01:16;3.80;;;3.50;;
7517;SDS011;3800;48.922;9.444;2023-04-25T03:03:44;5.70;;;3.17;;
7517;SDS011;3800;48.922;9.444;2023-04-25T03:06:12;4.23;;;3.70;;
7517;SDS011;3800;48.922;9.444;2023-04-25T03:08:41;4.70;;;3.53;;
7517;SDS011;3800;48.922;9.444;2023-04-25T03:11:09;4.37;;;3.23;;
7517;SDS011;3800;48.922;9.444;2023-04-25T03:13:37;3.90;;;3.47;;
7517;SDS011;3800;48.922;9.444;2023-04-25T03:16:06;3.83;;;3.50;;
7517;SDS011;3800;48.922;9.444;2023-04-25T03:18:35;4.07;;;3.77;;
7517;SDS011;3800;48.922;9.444;2023-04-25T03:21:03;4.30;;;3.90;;
7517;SDS011;3800;48.922;9.444;2023-04-25T03:23:31;4.00;;;3.70;;
7517;SDS011;3800;48.922;9.444;2023-04-25T03:25:59;4.13;;;3.73;;
7517;SDS011;3800;48.922;9.444;2023-04-25T03:28:28;4.33;;;3.70;;
7517;SDS011;3800;48.922;9.444;2023-04-25T03:30:56;4.50;;;4.03;;
7517;SDS011;3800;48.922;9.444;2023-04-25T03:33:24;6.37;;;4.00;;
7517;SDS011;3800;48.922;9.444;2023-04-25T03:35:52;6.07;;;4.00;;
7517;SDS011;3800;48.922;9.444;2023-04-25T03:38:21;4.63;;;4.03;;
7517;SDS011;3800;48.922;9.444;2023-04-25T03:40:50;6.70;;;4.20;;
7517;SDS011;3800;48.922;9.444;2023-04-25T03:43:18;5.03;;;3.90;;
7517;SDS011;3800;48.922;9.444;2023-04-25T03:45:46;4.97;;;3.87;;
7517;SDS011;3800;48.922;9.444;2023-04-25T03:48:14;4.70;;;4.20;;
7517;SDS011;3800;48.922;9.444;2023-04-25T03:50:42;5.10;;;4.60;;
7517;SDS011;3800;48.922;9.444;2023-04-25T03:53:11;4.50;;;4.10;;
7517;SDS011;3800;48.922;9.444;2023-04-25T03:55:39;4.73;;;4.07;;
7517;SDS011;3800;48.922;9.444;2023-04-25T03:58:08;5.53;;;4.53;;
7517;SDS011;3800;48.922;9.444;2023-04-25T04:00:36;5.00;;;4.27;;
7517;SDS011;3800;48.922;9.444;2023-04-25T04:03:04;5.10;;;4.47;;
7517;SDS011;3800;48.922;9.444;2023-04-25T04:05:33;8.80;;;4.80;;
7517;SDS011;3800;48.922;9.444;2023-04-25T04:08:01;4.70;;;4.30;;
7517;SDS011;3800;48.922;9.444;2023-04-25T04:10:29;5.83;;;5.10;;
7517;SDS011;3800;48.922;9.444;2023-04-25T04:12:57;8.23;;;4.60;;
7517;SDS011;3800;48.922;9.444;2023-04-25T04:15:26;5.33;;;4.83;;
7517;SDS011;3800;48.922;9.444;2023-04-25T04:17:55;5.07;;;4.33;;
7517;SDS011;3800;48.922;9.444;2023-04-25T04:20:23;4.77;;;4.37;;
7517;SDS011;3800;48.922;9.444;2023-04-25T04:22:51;8.27;;;4.80;;
7517;SDS011;3800;48.922;9.444;2023-04-25T04:25:19;6.73;;;4.47;;
7517;SDS011;3800;48.922;9.444;2023-04-25T04:27:48;5.00;;;4.30;;
7517;SDS011;3800;48.922;9.444;2023-04-25T04:30:16;5.43;;;4.40;;
7517;SDS011;3800;48.922;9.444;2023-04-25T04:32:44;4.93;;;4.03;;
7517;SDS011;3800;48.922;9.444;2023-04-25T04:35:14;7.30;;;4.87;;
7517;SDS011;3800;48.922;9.444;2023-04-25T04:37:42;4.70;;;4.10;;
7517;SDS011;3800;48.922;9.444;2023-04-25T04:40:11;6.47;;;4.53;;
7517;SDS011;3800;48.922;9.444;2023-04-25T04:42:41;6.80;;;4.73;;
7517;SDS011;3800;48.922;9.444;2023-04-25T04:45:09;5.33;;;4.47;;
7517;SDS011;3800;48.922;9.444;2023-04-25T04:47:38;4.93;;;4.53;;
7517;SDS011;3800;48.922;9.444;2023-04-25T04:50:06;5.00;;;4.50;;
7517;SDS011;3800;48.922;9.444;2023-04-25T04:52:35;6.73;;;4.67;;
7517;SDS011;3800;48.922;9.444;2023-04-25T04:55:05;4.80;;;4.40;;
7517;SDS011;3800;48.922;9.444;2023-04-25T04:57:34;4.97;;;4.57;;
7517;SDS011;3800;48.922;9.444;2023-04-25T05:00:04;6.73;;;4.40;;
7517;SDS011;3800;48.922;9.444;2023-04-25T05:02:34;5.13;;;4.63;;
7517;SDS011;3800;48.922;9.444;2023-04-25T05:05:02;5.27;;;4.70;;
7517;SDS011;3800;48.922;9.444;2023-04-25T05:07:31;5.50;;;4.47;;
7517;SDS011;3800;48.922;9.444;2023-04-25T05:09:59;7.67;;;4.80;;
7517;SDS011;3800;48.922;9.444;2023-04-25T05:12:27;5.53;;;4.93;;
7517;SDS011;3800;48.922;9.444;2023-04-25T05:14:55;5.43;;;4.93;;
7517;SDS011;3800;48.922;9.444;2023-04-25T05:17:25;5.37;;;4.87;;
7517;SDS011;3800;48.922;9.444;2023-04-25T05:19:54;4.93;;;4.47;;
7517;SDS011;3800;48.922;9.444;2023-04-25T05:22:22;5.20;;;4.60;;
7517;SDS011;3800;48.922;9.444;2023-04-25T05:24:51;5.37;;;4.87;;
7517;SDS011;3800;48.922;9.444;2023-04-25T05:27:19;5.23;;;4.73;;
7517;SDS011;3800;48.922;9.444;2023-04-25T05:29:47;5.43;;;4.90;;
7517;SDS011;3800;48.922;9.444;2023-04-25T05:32:17;5.20;;;4.70;;
7517;SDS011;3800;48.922;9.444;2023-04-25T05:34:45;5.47;;;4.97;;
7517;SDS011;3800;48.922;9.444;2023-04-25T05:37:14;5.67;;;5.03;;
7517;SDS011;3800;48.922;9.444;2023-04-25T05:39:42;5.57;;;5.07;;
7517;SDS011;3800;48.922;9.444;2023-04-25T05:42:16;6.67;;;5.40;;
7517;SDS011;3800;48.922;9.444;2023-04-25T05:44:44;7.63;;;5.43;;
7517;SDS011;3800;48.922;9.444;2023-04-25T05:47:12;6.10;;;5.50;;
7517;SDS011;3800;48.922;9.444;2023-04-25T05:49:41;6.50;;;5.20;;
7517;SDS011;3800;48.922;9.444;2023-04-25T05:52:09;6.30;;;5.67;;
7517;SDS011;3800;48.922;9.444;2023-04-25T05:54:37;5.90;;;5.30;;
7517;SDS011;3800;48.922;9.444;2023-04-25T05:57:06;5.47;;;4.97;;
7517;SDS011;3800;48.922;9.444;2023-04-25T05:59:34;6.10;;;5.13;;
7517;SDS011;3800;48.922;9.444;2023-04-25T06:02:02;6.73;;;5.50;;
7517;SDS011;3800;48.922;9.444;2023-04-25T06:04:30;7.10;;;5.63;;
7517;SDS011;3800;48.922;9.444;2023-04-25T06:06:58;7.00;;;5.87;;
7517;SDS011;3800;48.922;9.444;2023-04-25T06:09:27;23.30;;;7.53;;
7517;SDS011;3800;48.922;9.444;2023-04-25T06:11:55;7.53;;;5.83;;
7517;SDS011;3800;48.922;9.444;2023-04-25T06:14:24;7.47;;;5.90;;
7517;SDS011;3800;48.922;9.444;2023-04-25T06:16:52;6.17;;;5.53;;
7517;SDS011;3800;48.922;9.444;2023-04-25T06:19:20;7.13;;;6.47;;
7517;SDS011;3800;48.922;9.444;2023-04-25T06:21:49;7.40;;;6.00;;
7517;SDS011;3800;48.922;9.444;2023-04-25T06:24:17;7.30;;;6.53;;
7517;SDS011;3800;48.922;9.444;2023-04-25T06:26:45;10.23;;;6.37;;
7517;SDS011;3800;48.922;9.444;2023-04-25T06:29:13;8.03;;;6.30;;
7517;SDS011;3800;48.922;9.444;2023-04-25T06:31:42;7.10;;;6.40;;
7517;SDS011;3800;48.922;9.444;2023-04-25T06:34:10;6.97;;;6.23;;
7517;SDS011;3800;48.922;9.444;2023-04-25T06:36:38;6.93;;;6.23;;
7517;SDS011;3800;48.922;9.444;2023-04-25T06:39:07;7.20;;;5.90;;
7517;SDS011;3800;48.922;9.444;2023-04-25T06:41:35;6.97;;;6.20;;
7517;SDS011;3800;48.922;9.444;2023-04-25T06:44:03;5.90;;;5.30;;
7517;SDS011;3800;48.922;9.444;2023-04-25T06:46:31;6.43;;;5.83;;
7517;SDS011;3800;48.922;9.444;2023-04-25T06:49:00;5.93;;;5.40;;
7517;SDS011;3800;48.922;9.444;2023-04-25T06:51:28;7.20;;;5.40;;
7517;SDS011;3800;48.922;9.444;2023-04-25T06:53:56;6.30;;;5.70;;
7517;SDS011;3800;48.922;9.444;2023-04-25T06:56:24;5.67;;;5.17;;
7517;SDS011;3800;48.922;9.444;2023-04-25T06:58:52;6.03;;;4.87;;
7517;SDS011;3800;48.922;9.444;2023-04-25T07:01:21;5.63;;;5.13;;
7517;SDS011;3800;48.922;9.444;2023-04-25T07:03:49;5.67;;;5.17;;
7517;SDS011;3800;48.922;9.444;2023-04-25T07:06:17;6.13;;;5.30;;
7517;SDS011;3800;48.922;9.444;2023-04-25T07:08:46;7.00;;;5.40;;
7517;SDS011;3800;48.922;9.444;2023-04-25T07:11:14;6.53;;;5.60;;
7517;SDS011;3800;48.922;9.444;2023-04-25T07:13:42;5.97;;;5.37;;
7517;SDS011;3800;48.922;9.444;2023-04-25T07:16:10;5.43;;;4.93;;
7517;SDS011;3800;48.922;9.444;2023-04-25T07:18:38;6.57;;;5.90;;
7517;SDS011;3800;48.922;9.444;2023-04-25T07:21:07;6.37;;;5.77;;
7517;SDS011;3800;48.922;9.444;2023-04-25T07:23:35;6.13;;;5.23;;
7517;SDS011;3800;48.922;9.444;2023-04-25T07:26:03;6.03;;;5.43;;
7517;SDS011;3800;48.922;9.444;2023-04-25T07:28:32;5.60;;;5.10;;
7517;SDS011;3800;48.922;9.444;2023-04-25T07:31:00;6.43;;;5.90;;
7517;SDS011;3800;48.922;9.444;2023-04-25T07:33:28;6.73;;;5.23;;
7517;SDS011;3800;48.922;9.444;2023-04-25T07:35:56;6.33;;;5.57;;
7517;SDS011;3800;48.922;9.444;2023-04-25T07:38:25;5.83;;;5.33;;
7517;SDS011;3800;48.922;9.444;2023-04-25T07:40:53;6.23;;;5.73;;
7517;SDS011;3800;48.922;9.444;2023-04-25T07:43:21;6.20;;;5.60;;
7517;SDS011;3800;48.922;9.444;2023-04-25T07:45:49;6.63;;;5.97;;
7517;SDS011;3800;48.922;9.444;2023-04-25T07:48:18;7.23;;;6.13;;
7517;SDS011;3800;48.922;9.444;2023-04-25T07:50:46;5.30;;;4.80;;
7517;SDS011;3800;48.922;9.444;2023-04-25T07:53:14;4.93;;;4.40;;
7517;SDS011;3800;48.922;9.444;2023-04-25T07:55:42;4.70;;;4.30;;
7517;SDS011;3800;48.922;9.444;2023-04-25T07:58:11;6.30;;;5.50;;
7517;SDS011;3800;48.922;9.444;2023-04-25T08:00:39;6.80;;;4.80;;
7517;SDS011;3800;48.922;9.444;2023-04-25T08:03:09;5.17;;;4.67;;
7517;SDS011;3800;48.922;9.444;2023-04-25T08:05:36;5.37;;;4.87;;
7517;SDS011;3800;48.922;9.444;2023-04-25T08:08:04;5.40;;;4.90;;
7517;SDS011;3800;48.922;9.444;2023-04-25T08:10:33;6.50;;;4.93;;
7517;SDS011;3800;48.922;9.444;2023-04-25T08:13:01;6.23;;;5.27;;
7517;SDS011;3800;48.922;9.444;2023-04-25T08:15:29;7.00;;;6.00;;
7517;SDS011;3800;48.922;9.444;2023-04-25T08:17:57;6.20;;;5.60;;
7517;SDS011;3800;48.922;9.444;2023-04-25T08:20:26;5.90;;;5.37;;
7517;SDS011;3800;48.922;9.444;2023-04-25T08:22:54;6.87;;;6.27;;
7517;SDS011;3800;48.922;9.444;2023-04-25T08:25:23;6.90;;;6.27;;
7517;SDS011;3800;48.922;9.444;2023-04-25T08:27:51;8.00;;;6.83;;
7517;SDS011;3800;48.922;9.444;2023-04-25T08:30:19;17.43;;;7.37;;
7517;SDS011;3800;48.922;9.444;2023-04-25T08:32:48;9.03;;;6.73;;
7517;SDS011;3800;48.922;9.444;2023-04-25T08:35:16;7.60;;;6.80;;
7517;SDS011;3800;48.922;9.444;2023-04-25T08:37:45;7.40;;;6.53;;
7517;SDS011;3800;48.922;9.444;2023-04-25T08:40:14;6.87;;;6.17;;
7517;SDS011;3800;48.922;9.444;2023-04-25T08:42:42;7.00;;;6.30;;
7517;SDS011;3800;48.922;9.444;2023-04-25T08:45:10;6.47;;;5.77;;
7517;SDS011;3800;48.922;9.444;2023-04-25T08:47:39;6.13;;;5.53;;
7517;SDS011;3800;48.922;9.444;2023-04-25T08:50:07;7.70;;;5.87;;
7517;SDS011;3800;48.922;9.444;2023-04-25T08:52:36;7.67;;;6.03;;
7517;SDS011;3800;48.922;9.444;2023-04-25T08:55:04;10.13;;;6.10;;
7517;SDS011;3800;48.922;9.444;2023-04-25T08:57:33;8.63;;;5.77;;
7517;SDS011;3800;48.922;9.444;2023-04-25T09:00:01;6.93;;;6.17;;
7517;SDS011;3800;48.922;9.444;2023-04-25T09:02:29;6.87;;;6.17;;
7517;SDS011;3800;48.922;9.444;2023-04-25T09:04:57;6.37;;;5.77;;
7517;SDS011;3800;48.922;9.444;2023-04-25T09:07:26;7.47;;;5.90;;
7517;SDS011;3800;48.922;9.444;2023-04-25T09:09:54;6.10;;;5.53;;
7517;SDS011;3800;48.922;9.444;2023-04-25T09:12:22;6.33;;;5.73;;
7517;SDS011;3800;48.922;9.444;2023-04-25T09:17:29;6.33;;;5.83;;
7517;SDS011;3800;48.922;9.444;2023-04-25T09:22:37;6.60;;;5.80;;
7517;SDS011;3800;48.922;9.444;2023-04-25T09:25:09;6.40;;;5.80;;
7517;SDS011;3800;48.922;9.444;2023-04-25T09:27:48;5.93;;;5.43;;
7517;SDS011;3800;48.922;9.444;2023-04-25T09:30:28;6.53;;;5.93;;
7517;SDS011;3800;48.922;9.444;2023-04-25T09:32:56;7.47;;;6.23;;
7517;SDS011;3800;48.922;9.444;2023-04-25T09:35:24;7.17;;;6.47;;
7517;SDS011;3800;48.922;9.444;2023-04-25T09:37:53;6.83;;;6.13;;
7517;SDS011;3800;48.922;9.444;2023-04-25T09:40:21;6.67;;;6.07;;
7517;SDS011;3800;48.922;9.444;2023-04-25T09:42:50;6.40;;;5.80;;
7517;SDS011;3800;48.922;9.444;2023-04-25T09:45:19;7.87;;;6.10;;
7517;SDS011;3800;48.922;9.444;2023-04-25T09:47:48;5.93;;;5.43;;
7517;SDS011;3800;48.922;9.444;2023-04-25T09:50:16;6.80;;;6.20;;
7517;SDS011;3800;48.922;9.444;2023-04-25T09:52:45;7.40;;;6.10;;
7517;SDS011;3800;48.922;9.444;2023-04-25T09:55:13;8.47;;;6.10;;
7517;SDS011;3800;48.922;9.444;2023-04-25T09:57:41;6.43;;;5.83;;
7517;SDS011;3800;48.922;9.444;2023-04-25T10:00:10;7.40;;;6.53;;
7517;SDS011;3800;48.922;9.444;2023-04-25T10:02:40;6.60;;;5.90;;
7517;SDS011;3800;48.922;9.444;2023-04-25T10:05:09;8.60;;;6.77;;
7517;SDS011;3800;48.922;9.444;2023-04-25T10:07:37;7.30;;;6.60;;
7517;SDS011;3800;48.922;9.444;2023-04-25T10:10:05;12.47;;;7.00;;
7517;SDS011;3800;48.922;9.444;2023-04-25T10:12:34;7.73;;;6.93;;
7517;SDS011;3800;48.922;9.444;2023-04-25T10:15:03;7.57;;;6.40;;
7517;SDS011;3800;48.922;9.444;2023-04-25T10:17:31;8.43;;;6.80;;
7517;SDS011;3800;48.922;9.444;2023-04-25T10:20:02;7.27;;;6.37;;
7517;SDS011;3800;48.922;9.444;2023-04-25T10:22:29;8.67;;;7.50;;
7517;SDS011;3800;48.922;9.444;2023-04-25T10:24:57;9.50;;;7.40;;
7517;SDS011;3800;48.922;9.444;2023-04-25T10:27:27;6.43;;;5.83;;
7517;SDS011;3800;48.922;9.444;2023-04-25T10:30:01;6.90;;;6.20;;
7517;SDS011;3800;48.922;9.444;2023-04-25T10:32:30;9.13;;;6.00;;
7517;SDS011;3800;48.922;9.444;2023-04-25T10:37:37;5.50;;;4.63;;
7517;SDS011;3800;48.922;9.444;2023-04-25T10:40:08;4.40;;;4.00;;
7517;SDS011;3800;48.922;9.444;2023-04-25T10:42:37;5.20;;;4.27;;
7517;SDS011;3800;48.922;9.444;2023-04-25T10:45:05;6.07;;;5.10;;
7517;SDS011;3800;48.922;9.444;2023-04-25T10:47:35;7.87;;;4.87;;
7517;SDS011;3800;48.922;9.444;2023-04-25T10:50:05;5.30;;;4.80;;
7517;SDS011;3800;48.922;9.444;2023-04-25T10:52:33;5.20;;;4.23;;
7517;SDS011;3800;48.922;9.444;2023-04-25T10:55:03;5.13;;;4.63;;
7517;SDS011;3800;48.922;9.444;2023-04-25T10:57:31;6.33;;;5.73;;
7517;SDS011;3800;48.922;9.444;2023-04-25T11:00:16;5.90;;;5.30;;
7517;SDS011;3800;48.922;9.444;2023-04-25T11:02:45;6.77;;;6.03;;
7517;SDS011;3800;48.922;9.444;2023-04-25T11:05:33;7.27;;;6.57;;
7517;SDS011;3800;48.922;9.444;2023-04-25T11:08:01;18.90;;;7.13;;
7517;SDS011;3800;48.922;9.444;2023-04-25T11:10:31;11.03;;;7.40;;
7517;SDS011;3800;48.922;9.444;2023-04-25T11:12:58;9.57;;;7.23;;
7517;SDS011;3800;48.922;9.444;2023-04-25T11:15:26;14.13;;;10.67;;
7517;SDS011;3800;48.922;9.444;2023-04-25T11:17:54;14.47;;;10.27;;
7517;SDS011;3800;48.922;9.444;2023-04-25T11:20:24;15.07;;;10.80;;
7517;SDS011;3800;48.922;9.444;2023-04-25T11:22:51;10.33;;;8.53;;
7517;SDS011;3800;48.922;9.444;2023-04-25T11:25:19;8.37;;;7.47;;
7517;SDS011;3800;48.922;9.444;2023-04-25T11:27:52;8.40;;;7.60;;
7517;SDS011;3800;48.922;9.444;2023-04-25T11:30:21;7.30;;;6.60;;
7517;SDS011;3800;48.922;9.444;2023-04-25T11:32:50;10.90;;;7.80;;
7517;SDS011;3800;48.922;9.444;2023-04-25T11:35:19;7.80;;;6.93;;
7517;SDS011;3800;48.922;9.444;2023-04-25T11:37:47;7.30;;;6.60;;
7517;SDS011;3800;48.922;9.444;2023-04-25T11:40:15;7.23;;;6.53;;
7517;SDS011;3800;48.922;9.444;2023-04-25T11:42:44;10.03;;;6.80;;
7517;SDS011;3800;48.922;9.444;2023-04-25T11:45:13;12.90;;;6.43;;
7517;SDS011;3800;48.922;9.444;2023-04-25T11:47:40;9.03;;;7.13;;
7517;SDS011;3800;48.922;9.444;2023-04-25T11:50:09;9.73;;;6.80;;
7517;SDS011;3800;48.922;9.444;2023-04-25T11:52:38;7.40;;;6.27;;
7517;SDS011;3800;48.922;9.444;2023-04-25T11:55:08;12.40;;;8.23;;
7517;SDS011;3800;48.922;9.444;2023-04-25T11:57:38;7.87;;;7.03;;
7517;SDS011;3800;48.922;9.444;2023-04-25T12:00:07;7.83;;;7.03;;
7517;SDS011;3800;48.922;9.444;2023-04-25T12:02:43;8.70;;;7.90;;
7517;SDS011;3800;48.922;9.444;2023-04-25T12:05:11;8.00;;;7.30;;
7517;SDS011;3800;48.922;9.444;2023-04-25T12:07:39;8.97;;;7.63;;
7517;SDS011;3800;48.922;9.444;2023-04-25T12:10:08;10.20;;;9.13;;
7517;SDS011;3800;48.922;9.444;2023-04-25T12:12:36;8.83;;;7.50;;
7517;SDS011;3800;48.922;9.444;2023-04-25T12:15:08;8.50;;;7.70;;
7517;SDS011;3800;48.922;9.444;2023-04-25T12:17:45;6.93;;;6.30;;
7517;SDS011;3800;48.922;9.444;2023-04-25T12:20:14;7.27;;;6.57;;
7517;SDS011;3800;48.922;9.444;2023-04-25T12:22:45;5.83;;;5.33;;
7517;SDS011;3800;48.922;9.444;2023-04-25T12:25:13;6.30;;;5.70;;
7517;SDS011;3800;48.922;9.444;2023-04-25T12:27:41;6.23;;;5.63;;
7517;SDS011;3800;48.922;9.444;2023-04-25T12:30:09;6.50;;;5.90;;
7517;SDS011;3800;48.922;9.444;2023-04-25T12:32:38;6.47;;;5.87;;
7517;SDS011;3800;48.922;9.444;2023-04-25T12:35:06;7.07;;;5.90;;
7517;SDS011;3800;48.922;9.444;2023-04-25T12:37:34;6.33;;;5.77;;
7517;SDS011;3800;48.922;9.444;2023-04-25T12:40:03;7.00;;;6.40;;
7517;SDS011;3800;48.922;9.444;2023-04-25T12:42:32;7.13;;;6.43;;
7517;SDS011;3800;48.922;9.444;2023-04-25T12:45:00;7.03;;;6.33;;
7517;SDS011;3800;48.922;9.444;2023-04-25T12:47:28;6.90;;;6.20;;
7517;SDS011;3800;48.922;9.444;2023-04-25T12:49:56;6.20;;;5.70;;
7517;SDS011;3800;48.922;9.444;2023-04-25T12:52:25;5.97;;;5.47;;
7517;SDS011;3800;48.922;9.444;2023-04-25T12:54:53;7.63;;;6.83;;
7517;SDS011;3800;48.922;9.444;2023-04-25T12:57:21;8.23;;;7.43;;
7517;SDS011;3800;48.922;9.444;2023-04-25T12:59:49;9.97;;;7.53;;
7517;SDS011;3800;48.922;9.444;2023-04-25T13:02:18;7.73;;;7.03;;
7517;SDS011;3800;48.922;9.444;2023-04-25T13:04:47;9.00;;;8.10;;
7517;SDS011;3800;48.922;9.444;2023-04-25T13:07:15;8.47;;;7.67;;
7517;SDS011;3800;48.922;9.444;2023-04-25T13:09:43;8.37;;;7.53;;
7517;SDS011;3800;48.922;9.444;2023-04-25T13:12:11;8.10;;;7.30;;
7517;SDS011;3800;48.922;9.444;2023-04-25T13:14:40;8.20;;;7.40;;
7517;SDS011;3800;48.922;9.444;2023-04-25T13:17:08;9.70;;;7.77;;
7517;SDS011;3800;48.922;9.444;2023-04-25T13:19:36;10.13;;;8.20;;
7517;SDS011;3800;48.922;9.444;2023-04-25T13:22:05;8.67;;;7.50;;
7517;SDS011;3800;48.922;9.444;2023-04-25T13:24:33;8.13;;;7.03;;
7517;SDS011;3800;48.922;9.444;2023-04-25T13:27:02;10.63;;;7.97;;
7517;SDS011;3800;48.922;9.444;2023-04-25T13:29:30;9.27;;;7.87;;
7517;SDS011;3800;48.922;9.444;2023-04-25T13:31:58;8.97;;;8.10;;
7517;SDS011;3800;48.922;9.444;2023-04-25T13:34:27;9.53;;;8.20;;
7517;SDS011;3800;48.922;9.444;2023-04-25T13:36:56;12.83;;;8.27;;
7517;SDS011;3800;48.922;9.444;2023-04-25T13:39:24;11.73;;;8.27;;
7517;SDS011;3800;48.922;9.444;2023-04-25T13:41:52;11.27;;;9.30;;
7517;SDS011;3800;48.922;9.444;2023-04-25T13:44:20;11.17;;;9.23;;
7517;SDS011;3800;48.922;9.444;2023-04-25T13:46:49;10.33;;;8.70;;
7517;SDS011;3800;48.922;9.444;2023-04-25T13:49:17;13.37;;;8.93;;
7517;SDS011;3800;48.922;9.444;2023-04-25T13:51:45;10.23;;;8.93;;
7517;SDS011;3800;48.922;9.444;2023-04-25T13:54:14;10.93;;;8.40;;
7517;SDS011;3800;48.922;9.444;2023-04-25T13:56:42;11.40;;;8.93;;
7517;SDS011;3800;48.922;9.444;2023-04-25T13:59:11;10.50;;;9.40;;
7517;SDS011;3800;48.922;9.444;2023-04-25T14:01:39;11.93;;;10.27;;
7517;SDS011;3800;48.922;9.444;2023-04-25T14:04:07;14.93;;;10.87;;
7517;SDS011;3800;48.922;9.444;2023-04-25T14:06:35;13.40;;;10.77;;
7517;SDS011;3800;48.922;9.444;2023-04-25T14:09:04;14.97;;;12.30;;
7517;SDS011;3800;48.922;9.444;2023-04-25T14:11:32;14.87;;;10.93;;
7517;SDS011;3800;48.922;9.444;2023-04-25T14:14:00;11.47;;;10.27;;
7517;SDS011;3800;48.922;9.444;2023-04-25T14:16:29;12.67;;;11.13;;
7517;SDS011;3800;48.922;9.444;2023-04-25T14:18:58;12.90;;;11.60;;
7517;SDS011;3800;48.922;9.444;2023-04-25T14:21:26;12.20;;;10.93;;
7517;SDS011;3800;48.922;9.444;2023-04-25T14:23:54;13.23;;;11.80;;
7517;SDS011;3800;48.922;9.444;2023-04-25T14:26:22;13.37;;;10.27;;
7517;SDS011;3800;48.922;9.444;2023-04-25T14:28:51;17.20;;;11.17;;
7517;SDS011;3800;48.922;9.444;2023-04-25T14:31:19;14.23;;;11.13;;
7517;SDS011;3800;48.922;9.444;2023-04-25T14:33:48;11.67;;;9.73;;
7517;SDS011;3800;48.922;9.444;2023-04-25T14:36:16;11.03;;;8.87;;
7517;SDS011;3800;48.922;9.444;2023-04-25T14:38:45;12.53;;;8.87;;
7517;SDS011;3800;48.922;9.444;2023-04-25T14:41:13;11.27;;;9.87;;
7517;SDS011;3800;48.922;9.444;2023-04-25T14:43:42;10.90;;;9.43;;
7517;SDS011;3800;48.922;9.444;2023-04-25T14:46:11;10.73;;;9.60;;
7517;SDS011;3800;48.922;9.444;2023-04-25T14:48:39;11.77;;;8.30;;
7517;SDS011;3800;48.922;9.444;2023-04-25T14:51:07;11.40;;;8.97;;
7517;SDS011;3800;48.922;9.444;2023-04-25T14:53:35;10.30;;;9.20;;
7517;SDS011;3800;48.922;9.444;2023-04-25T14:56:04;12.10;;;9.30;;
7517;SDS011;3800;48.922;9.444;2023-04-25T14:58:32;10.70;;;9.57;;
7517;SDS011;3800;48.922;9.444;2023-04-25T15:01:00;13.50;;;9.20;;
7517;SDS011;3800;48.922;9.444;2023-04-25T15:03:29;8.47;;;7.23;;
7517;SDS011;3800;48.922;9.444;2023-04-25T15:05:57;9.23;;;7.70;;
7517;SDS011;3800;48.922;9.444;2023-04-25T15:08:25;12.13;;;8.00;;
7517;SDS011;3800;48.922;9.444;2023-04-25T15:10:53;10.33;;;7.90;;
7517;SDS011;3800;48.922;9.444;2023-04-25T15:13:22;11.90;;;9.03;;
7517;SDS011;3800;48.922;9.444;2023-04-25T15:15:50;11.30;;;8.87;;
7517;SDS011;3800;48.922;9.444;2023-04-25T15:18:19;10.17;;;8.23;;
7517;SDS011;3800;48.922;9.444;2023-04-25T15:20:50;9.43;;;8.43;;
7517;SDS011;3800;48.922;9.444;2023-04-25T15:23:19;11.23;;;8.97;;
7517;SDS011;3800;48.922;9.444;2023-04-25T15:25:47;12.83;;;8.90;;
7517;SDS011;3800;48.922;9.444;2023-04-25T15:28:16;15.80;;;9.23;;